createdAt,value
2023-08-29T00:00:58.540Z,30.96
2023-08-29T00:03:28.497Z,30.78
2023-08-29T00:06:02.227Z,30.76
2023-08-29T00:08:29.448Z,30.62
2023-08-29T00:10:57.208Z,30.52
2023-08-29T00:13:24.625Z,30.28
2023-08-29T00:15:52.005Z,30.08
2023-08-29T00:18:21.864Z,29.99
2023-08-29T00:20:51.882Z,30.06
2023-08-29T00:23:18.666Z,29.88
2023-08-29T00:25:46.845Z,29.78
2023-08-29T00:28:14.028Z,29.83
2023-08-29T00:30:44.157Z,29.72
2023-08-29T00:33:11.960Z,29.72
2023-08-29T00:35:39.557Z,29.74
2023-08-29T00:38:06.898Z,29.59
2023-08-29T00:40:33.886Z,29.61
2023-08-29T00:43:01.246Z,29.59
2023-08-29T00:45:30.331Z,29.82
2023-08-29T00:47:57.140Z,29.80
2023-08-29T00:50:24.743Z,29.65
2023-08-29T00:52:51.414Z,29.57
2023-08-29T00:55:18.160Z,29.38
2023-08-29T00:57:44.871Z,29.35
2023-08-29T01:00:13.321Z,29.29
2023-08-29T01:02:41.176Z,29.10
2023-08-29T01:05:07.910Z,28.93
2023-08-29T01:07:35.200Z,28.74
2023-08-29T01:10:02.030Z,28.63
2023-08-29T01:12:59.057Z,28.49
2023-08-29T01:15:27.834Z,28.41
2023-08-29T01:18:01.077Z,28.31
2023-08-29T01:20:30.415Z,28.30
2023-08-29T01:23:14.943Z,28.27
2023-08-29T01:25:48.056Z,28.18
2023-08-29T01:28:14.729Z,28.22
2023-08-29T01:30:41.841Z,28.21
2023-08-29T01:33:09.897Z,28.21
2023-08-29T01:35:47.499Z,28.29
2023-08-29T01:38:17.947Z,28.25
2023-08-29T01:40:45.444Z,28.22
2023-08-29T01:43:12.105Z,28.28
2023-08-29T01:45:39.073Z,28.32
2023-08-29T01:48:06.628Z,28.32
2023-08-29T01:50:33.695Z,28.32
2023-08-29T01:53:00.934Z,28.32
2023-08-29T01:55:28.462Z,28.30
2023-08-29T01:57:55.258Z,28.30
2023-08-29T02:00:24.985Z,28.31
2023-08-29T02:02:51.792Z,28.41
2023-08-29T02:05:18.530Z,28.45
2023-08-29T02:07:45.264Z,28.34
2023-08-29T02:10:12.005Z,28.36
2023-08-29T02:12:38.823Z,28.40
2023-08-29T02:15:07.030Z,28.38
2023-08-29T02:17:34.106Z,28.19
2023-08-29T02:20:00.764Z,28.12
2023-08-29T02:22:27.358Z,27.95
2023-08-29T02:24:54.085Z,27.90
2023-08-29T02:27:20.831Z,27.88
2023-08-29T02:29:47.722Z,27.79
2023-08-29T02:32:15.434Z,27.85
2023-08-29T02:34:42.279Z,27.81
2023-08-29T02:37:09.006Z,27.64
2023-08-29T02:39:35.697Z,27.60
2023-08-29T02:42:04.147Z,27.53
2023-08-29T02:44:30.905Z,27.59
2023-08-29T02:46:57.530Z,27.63
2023-08-29T02:49:24.167Z,27.75
2023-08-29T02:51:50.918Z,27.93
2023-08-29T02:54:18.864Z,27.97
2023-08-29T02:56:45.471Z,28.17
2023-08-29T02:59:12.262Z,28.33
2023-08-29T03:01:38.978Z,28.49
2023-08-29T03:04:05.732Z,28.51
2023-08-29T03:06:32.591Z,28.58
2023-08-29T03:08:59.545Z,28.63
2023-08-29T03:11:27.191Z,28.39
2023-08-29T03:13:54.090Z,28.34
2023-08-29T03:16:21.812Z,28.43
2023-08-29T03:18:48.482Z,28.53
2023-08-29T03:21:15.236Z,28.61
2023-08-29T03:23:41.903Z,28.72
2023-08-29T03:26:11.284Z,28.98
2023-08-29T03:28:38.629Z,29.07
2023-08-29T03:31:09.581Z,28.87
2023-08-29T03:33:36.917Z,28.98
2023-08-29T03:36:04.159Z,28.92
2023-08-29T03:38:30.914Z,28.92
2023-08-29T03:40:58.181Z,28.95
2023-08-29T03:43:28.180Z,28.88
2023-08-29T03:45:58.861Z,28.74
2023-08-29T03:48:29.047Z,28.72
2023-08-29T03:50:56.894Z,29.01
2023-08-29T03:53:23.606Z,29.24
2023-08-29T03:55:50.851Z,28.96
2023-08-29T03:58:17.509Z,28.92
2023-08-29T04:00:45.177Z,28.93
2023-08-29T04:03:12.310Z,29.09
2023-08-29T04:05:39.502Z,29.31
2023-08-29T04:08:06.766Z,29.51
2023-08-29T04:10:39.024Z,29.77
2023-08-29T04:13:06.813Z,30.01
2023-08-29T04:15:34.478Z,30.35
2023-08-29T04:18:02.176Z,30.61
2023-08-29T04:20:30.156Z,30.82
2023-08-29T04:22:57.735Z,31.02
2023-08-29T04:25:26.746Z,31.16
2023-08-29T04:27:53.936Z,31.31
2023-08-29T04:30:21.200Z,31.33
2023-08-29T04:32:51.572Z,31.42
2023-08-29T04:35:18.726Z,31.43
2023-08-29T04:37:51.903Z,31.76
2023-08-29T04:40:19.011Z,32.19
2023-08-29T04:42:45.979Z,32.38
2023-08-29T04:45:13.669Z,32.51
2023-08-29T04:47:41.350Z,32.61
2023-08-29T04:50:08.570Z,32.86
2023-08-29T04:52:35.918Z,32.91
2023-08-29T04:55:03.494Z,33.16
2023-08-29T04:57:30.461Z,33.71
2023-08-29T04:59:57.286Z,34.00
2023-08-29T05:02:24.244Z,34.18
2023-08-29T05:04:53.182Z,34.20
2023-08-29T05:07:19.947Z,34.07
2023-08-29T05:09:47.598Z,34.12
2023-08-29T05:12:14.213Z,34.25
2023-08-29T05:14:40.984Z,34.51
2023-08-29T05:17:10.784Z,34.64
2023-08-29T05:19:37.749Z,34.53
2023-08-29T05:22:04.673Z,34.42
2023-08-29T05:24:31.700Z,34.15
2023-08-29T05:26:58.376Z,33.68
2023-08-29T05:29:25.293Z,33.15
2023-08-29T05:31:51.899Z,32.84
2023-08-29T05:34:18.695Z,32.89
2023-08-29T05:36:47.571Z,33.06
2023-08-29T05:39:14.729Z,33.19
2023-08-29T05:41:41.498Z,33.41
2023-08-29T05:44:08.201Z,33.56
2023-08-29T05:46:35.206Z,33.73
2023-08-29T05:49:02.120Z,33.92
2023-08-29T05:51:29.170Z,34.23
2023-08-29T05:53:55.827Z,34.24
2023-08-29T05:56:22.566Z,34.14
2023-08-29T05:58:49.245Z,34.41
2023-08-29T06:01:16.032Z,34.70
2023-08-29T06:03:42.970Z,34.91
2023-08-29T06:06:10.372Z,35.07
2023-08-29T06:08:37.162Z,35.01
2023-08-29T06:11:04.282Z,35.45
2023-08-29T06:13:31.234Z,35.81
2023-08-29T06:15:58.059Z,36.13
2023-08-29T06:18:24.813Z,36.60
2023-08-29T06:20:51.556Z,36.94
2023-08-29T06:23:18.691Z,37.06
2023-08-29T06:25:45.459Z,36.98
2023-08-29T06:28:12.202Z,37.05
2023-08-29T06:30:39.136Z,36.90
2023-08-29T06:33:07.114Z,36.88
2023-08-29T06:35:38.755Z,37.37
2023-08-29T06:38:05.807Z,37.44
2023-08-29T06:40:33.590Z,37.56
2023-08-29T06:43:00.420Z,37.71
2023-08-29T06:45:27.163Z,38.15
2023-08-29T06:47:54.341Z,38.48
2023-08-29T06:50:21.149Z,38.71
2023-08-29T06:52:47.954Z,38.69
2023-08-29T06:55:15.435Z,38.29
2023-08-29T06:57:42.075Z,38.65
2023-08-29T07:00:11.378Z,39.01
2023-08-29T07:02:38.251Z,39.09
2023-08-29T07:05:05.517Z,39.14
2023-08-29T07:07:32.514Z,39.12
2023-08-29T07:09:59.554Z,39.21
2023-08-29T07:12:26.334Z,39.71
2023-08-29T07:14:53.171Z,39.84
2023-08-29T07:17:20.112Z,39.86
2023-08-29T07:19:46.794Z,39.74
2023-08-29T07:24:44.306Z,39.67
2023-08-29T07:27:11.574Z,39.87
2023-08-29T07:29:38.464Z,40.14
2023-08-29T07:32:05.660Z,40.15
2023-08-29T07:34:32.245Z,40.37
2023-08-29T07:36:59.108Z,40.75
2023-08-29T07:39:25.954Z,40.60
2023-08-29T07:41:52.626Z,40.45
2023-08-29T07:44:19.517Z,40.44
2023-08-29T07:47:03.118Z,40.75
2023-08-29T07:49:32.974Z,40.92
2023-08-29T07:51:59.760Z,41.13
2023-08-29T07:54:26.607Z,40.96
2023-08-29T07:56:53.803Z,40.74
2023-08-29T07:59:21.274Z,40.62
2023-08-29T08:01:49.211Z,40.50
2023-08-29T08:04:16.002Z,40.32
2023-08-29T08:06:42.742Z,40.13
2023-08-29T08:09:09.652Z,40.24
2023-08-29T08:11:36.292Z,40.25
2023-08-29T08:14:03.753Z,40.86
2023-08-29T08:16:30.648Z,40.33
2023-08-29T08:18:57.569Z,40.05
2023-08-29T08:21:24.326Z,39.92
2023-08-29T08:23:51.175Z,40.23
2023-08-29T08:26:18.009Z,40.36
2023-08-29T08:28:44.750Z,40.13
2023-08-29T08:31:11.803Z,40.45
2023-08-29T08:33:41.334Z,40.51
2023-08-29T08:36:08.360Z,40.43
2023-08-29T08:38:35.180Z,40.59
2023-08-29T08:41:01.932Z,40.60
2023-08-29T08:43:29.783Z,40.81
2023-08-29T08:45:56.790Z,40.95
2023-08-29T08:48:23.685Z,41.36
2023-08-29T08:50:50.787Z,41.73
2023-08-29T08:53:23.322Z,41.77
2023-08-29T08:55:50.200Z,41.86
2023-08-29T08:58:18.606Z,41.78
2023-08-29T09:00:45.333Z,41.91
2023-08-29T09:03:15.261Z,42.06
2023-08-29T09:05:42.586Z,42.14
2023-08-29T09:08:09.338Z,42.21
2023-08-29T09:10:39.874Z,42.25
2023-08-29T09:13:06.658Z,42.08
2023-08-29T09:15:35.217Z,41.84
2023-08-29T09:18:02.078Z,41.79
2023-08-29T09:20:29.804Z,41.89
2023-08-29T09:22:56.636Z,42.02
2023-08-29T09:25:26.055Z,42.26
2023-08-29T09:27:53.712Z,42.62
2023-08-29T09:30:20.606Z,42.63
2023-08-29T09:32:48.789Z,42.30
2023-08-29T09:35:16.839Z,42.54
2023-08-29T09:37:51.437Z,42.35
2023-08-29T09:40:36.352Z,42.24
2023-08-29T09:43:05.190Z,42.64
2023-08-29T09:45:32.289Z,42.96
2023-08-29T09:48:02.964Z,42.68
2023-08-29T09:50:30.655Z,42.14
2023-08-29T09:52:57.591Z,42.25
2023-08-29T09:55:24.613Z,42.09
2023-08-29T09:57:51.477Z,42.04
2023-08-29T10:00:20.708Z,41.68
2023-08-29T10:02:47.805Z,41.98
2023-08-29T10:05:15.250Z,42.14
2023-08-29T10:07:47.351Z,42.28
2023-08-29T10:10:14.074Z,42.48
2023-08-29T10:12:41.027Z,42.79
2023-08-29T10:15:08.753Z,42.83
2023-08-29T10:23:08.830Z,42.84
2023-08-29T10:25:36.323Z,42.82
2023-08-29T10:28:03.911Z,42.81
2023-08-29T10:30:31.078Z,42.90
2023-08-29T10:32:58.018Z,42.95
2023-08-29T10:35:24.907Z,43.12
2023-08-29T10:37:54.588Z,43.25
2023-08-29T10:40:24.599Z,43.03
2023-08-29T10:42:56.167Z,42.97
2023-08-29T10:45:43.426Z,42.95
2023-08-29T10:48:15.901Z,43.36
2023-08-29T10:51:04.289Z,43.88
2023-08-29T10:53:32.356Z,43.79
2023-08-29T10:56:04.528Z,43.08
2023-08-29T10:58:41.141Z,43.09
2023-08-29T11:01:28.669Z,43.14
2023-08-29T11:03:56.192Z,42.86
2023-08-29T11:06:27.275Z,42.81
2023-08-29T11:09:17.528Z,42.44
2023-08-29T11:11:44.370Z,42.38
2023-08-29T11:14:11.182Z,42.60
2023-08-29T11:16:38.772Z,42.86
2023-08-29T11:19:12.949Z,43.22
2023-08-29T11:21:40.760Z,43.14
2023-08-29T11:26:41.160Z,42.82
2023-08-29T11:29:08.410Z,42.66
2023-08-29T11:31:53.240Z,42.94
2023-08-29T11:34:21.616Z,43.05
2023-08-29T11:36:49.497Z,43.03
2023-08-29T11:39:19.220Z,43.11
2023-08-29T11:42:07.530Z,42.96
2023-08-29T11:44:59.685Z,42.75
2023-08-29T11:47:21.303Z,42.80
2023-08-29T11:49:50.962Z,42.68
2023-08-29T11:52:21.053Z,42.70
2023-08-29T11:54:48.738Z,42.76
2023-08-29T11:57:16.175Z,42.46
2023-08-29T11:59:43.944Z,42.35
2023-08-29T12:02:17.753Z,42.26
2023-08-29T12:04:47.562Z,42.24
2023-08-29T12:07:15.417Z,42.03
2023-08-29T12:09:43.671Z,42.05
2023-08-29T12:12:34.927Z,42.16
2023-08-29T12:15:41.899Z,41.99
2023-08-29T12:18:21.141Z,42.25
2023-08-29T12:20:48.407Z,42.27
2023-08-29T12:23:30.215Z,42.24
2023-08-29T12:26:01.791Z,42.17
2023-08-29T12:28:28.755Z,42.10
2023-08-29T12:30:57.182Z,42.18
2023-08-29T12:33:24.221Z,42.45
2023-08-29T12:35:51.176Z,42.31
2023-08-29T12:38:18.922Z,42.53
2023-08-29T12:40:46.000Z,42.75
2023-08-29T12:43:13.640Z,42.86
2023-08-29T12:45:52.719Z,42.95
2023-08-29T12:48:23.854Z,42.80
2023-08-29T12:50:50.634Z,42.79
2023-08-29T12:53:17.695Z,42.71
2023-08-29T12:55:44.341Z,42.48
2023-08-29T12:58:11.152Z,42.35
2023-08-29T13:00:38.827Z,42.26
2023-08-29T13:03:06.873Z,42.19
2023-08-29T13:05:33.993Z,42.28
2023-08-29T13:08:00.753Z,42.30
2023-08-29T13:10:29.291Z,42.37
2023-08-29T13:12:56.022Z,42.27
2023-08-29T13:15:24.004Z,42.01
2023-08-29T13:17:53.755Z,41.89
2023-08-29T13:20:20.407Z,41.94
2023-08-29T13:22:47.405Z,42.17
2023-08-29T13:25:14.063Z,42.28
2023-08-29T13:27:40.847Z,42.36
2023-08-29T13:30:09.036Z,42.32
2023-08-29T13:32:35.811Z,42.15
2023-08-29T13:35:03.875Z,42.01
2023-08-29T13:37:30.738Z,41.96
2023-08-29T13:39:57.433Z,42.09
2023-08-29T13:42:24.513Z,42.09
2023-08-29T13:44:55.212Z,42.11
2023-08-29T13:47:22.849Z,42.34
2023-08-29T13:49:49.657Z,42.42
2023-08-29T13:52:16.565Z,42.29
2023-08-29T13:54:43.272Z,42.28
2023-08-29T13:57:09.934Z,42.63
2023-08-29T13:59:36.591Z,42.79
2023-08-29T14:02:03.709Z,42.81
2023-08-29T14:04:30.550Z,43.07
2023-08-29T14:06:57.286Z,43.20
2023-08-29T14:09:24.025Z,43.14
2023-08-29T14:11:50.801Z,43.09
2023-08-29T14:14:17.793Z,42.88
2023-08-29T14:16:44.782Z,43.10
2023-08-29T14:19:11.481Z,43.22
2023-08-29T14:21:38.191Z,43.12
2023-08-29T14:24:05.208Z,43.39
2023-08-29T14:26:32.046Z,43.55
2023-08-29T14:29:09.005Z,43.64
2023-08-29T14:31:35.681Z,43.55
2023-08-29T14:34:02.609Z,43.39
2023-08-29T14:36:32.697Z,43.28
2023-08-29T14:39:01.676Z,43.13
2023-08-29T14:41:29.027Z,43.07
2023-08-29T14:43:56.311Z,43.09
2023-08-29T14:46:23.393Z,43.10
2023-08-29T14:48:50.268Z,42.87
2023-08-29T14:51:17.214Z,42.63
2023-08-29T14:53:44.164Z,42.67
2023-08-29T14:56:11.030Z,42.57
2023-08-29T14:58:37.734Z,42.64
2023-08-29T15:01:04.714Z,42.78
2023-08-29T15:03:31.697Z,42.81
2023-08-29T15:05:58.600Z,42.83
2023-08-29T15:08:26.595Z,42.65
2023-08-29T15:10:53.949Z,42.69
2023-08-29T15:13:21.795Z,42.89
2023-08-29T15:15:48.703Z,42.97
2023-08-29T15:18:16.488Z,42.76
2023-08-29T15:20:43.392Z,42.44
2023-08-29T15:23:15.855Z,42.29
2023-08-29T15:25:42.962Z,41.96
2023-08-29T15:28:10.723Z,41.89
2023-08-29T15:30:38.812Z,41.79
2023-08-29T15:33:05.789Z,41.68
2023-08-29T15:35:32.575Z,41.29
2023-08-29T15:37:59.408Z,40.94
2023-08-29T15:40:26.245Z,40.84
2023-08-29T15:42:53.069Z,40.75
2023-08-29T15:45:19.786Z,40.80
2023-08-29T15:47:46.759Z,40.85
2023-08-29T15:50:14.654Z,40.76
2023-08-29T15:52:41.488Z,40.55
2023-08-29T15:55:08.712Z,40.37
2023-08-29T15:57:35.423Z,40.25
2023-08-29T16:00:10.009Z,40.00
2023-08-29T16:02:36.984Z,39.84
2023-08-29T16:05:03.916Z,39.79
2023-08-29T16:07:30.968Z,39.69
2023-08-29T16:09:58.354Z,39.51
2023-08-29T16:12:27.105Z,39.49
2023-08-29T16:14:54.148Z,39.44
2023-08-29T16:17:20.915Z,39.39
2023-08-29T16:19:47.699Z,39.28
2023-08-29T16:22:14.426Z,39.20
2023-08-29T16:24:41.289Z,39.17
2023-08-29T16:27:07.900Z,39.00
2023-08-29T16:29:34.932Z,38.89
2023-08-29T16:32:01.762Z,38.83
2023-08-29T16:34:28.655Z,38.86
2023-08-29T16:36:55.333Z,38.84
2023-08-29T16:39:22.048Z,38.73
2023-08-29T16:41:49.701Z,38.68
2023-08-29T16:44:18.005Z,38.53
2023-08-29T16:46:44.821Z,38.33
2023-08-29T16:49:11.732Z,38.15
2023-08-29T16:51:39.267Z,37.93
2023-08-29T16:54:06.361Z,37.93
2023-08-29T16:56:33.176Z,37.70
2023-08-29T16:59:00.017Z,37.58
2023-08-29T17:01:26.823Z,37.70
2023-08-29T17:03:53.552Z,37.62
2023-08-29T17:06:20.378Z,37.49
2023-08-29T17:08:47.667Z,37.47
2023-08-29T17:11:14.792Z,37.41
2023-08-29T17:13:44.392Z,37.35
2023-08-29T17:16:11.359Z,37.22
2023-08-29T17:18:38.074Z,37.16
2023-08-29T17:21:05.124Z,37.22
2023-08-29T17:23:31.821Z,37.20
2023-08-29T17:25:58.736Z,37.02
2023-08-29T17:28:25.584Z,36.96
2023-08-29T17:30:52.421Z,36.94
2023-08-29T17:33:19.724Z,36.78
2023-08-29T17:35:47.438Z,36.45
2023-08-29T17:38:14.251Z,36.42
2023-08-29T17:40:41.253Z,36.45
2023-08-29T17:43:07.958Z,36.53
2023-08-29T17:45:39.118Z,36.49
2023-08-29T17:48:06.404Z,36.41
2023-08-29T17:50:33.571Z,36.28
2023-08-29T17:53:00.318Z,36.16
2023-08-29T17:55:28.178Z,36.26
2023-08-29T17:57:55.418Z,36.22
2023-08-29T18:00:22.612Z,36.07
2023-08-29T18:02:49.687Z,35.91
2023-08-29T18:05:16.599Z,35.93
2023-08-29T18:07:43.633Z,35.91
2023-08-29T18:10:13.646Z,35.84
2023-08-29T18:12:40.828Z,35.93
2023-08-29T18:15:08.275Z,35.91
2023-08-29T18:17:35.260Z,35.99
2023-08-29T18:20:02.510Z,35.98
2023-08-29T18:22:29.591Z,35.95
2023-08-29T18:24:56.408Z,35.96
2023-08-29T18:27:23.740Z,35.96
2023-08-29T18:29:50.788Z,35.85
2023-08-29T18:32:18.105Z,35.83
2023-08-29T18:34:45.110Z,35.83
2023-08-29T18:37:12.168Z,35.59
2023-08-29T18:39:39.064Z,35.28
2023-08-29T18:42:06.485Z,35.30
2023-08-29T18:44:36.833Z,35.11
2023-08-29T18:47:04.815Z,34.99
2023-08-29T18:49:35.908Z,34.94
2023-08-29T18:52:03.075Z,34.86
2023-08-29T18:54:33.300Z,34.84
2023-08-29T18:57:01.162Z,34.79
2023-08-29T18:59:28.132Z,34.72
2023-08-29T19:01:54.950Z,34.73
2023-08-29T19:04:21.715Z,34.73
2023-08-29T19:06:48.347Z,34.72
2023-08-29T19:09:15.084Z,34.71
2023-08-29T19:11:41.888Z,34.67
2023-08-29T19:14:08.653Z,34.60
2023-08-29T19:16:35.646Z,34.48
2023-08-29T19:19:04.578Z,34.47
2023-08-29T19:21:31.462Z,34.58
2023-08-29T19:24:00.634Z,34.55
2023-08-29T19:26:27.716Z,34.57
2023-08-29T19:28:54.620Z,34.52
2023-08-29T19:31:21.545Z,34.65
2023-08-29T19:33:48.191Z,34.48
2023-08-29T19:36:16.740Z,34.30
2023-08-29T19:38:43.614Z,34.33
2023-08-29T19:41:12.719Z,34.40
2023-08-29T19:43:39.513Z,34.37
2023-08-29T19:46:06.160Z,34.35
2023-08-29T19:48:33.320Z,34.40
2023-08-29T19:50:59.920Z,34.30
2023-08-29T19:53:27.072Z,34.23
2023-08-29T19:55:54.260Z,34.23
2023-08-29T19:58:22.035Z,34.21
2023-08-29T20:00:50.402Z,34.22
2023-08-29T20:03:17.941Z,34.18
2023-08-29T20:05:45.075Z,34.06
2023-08-29T20:08:14.653Z,34.01
2023-08-29T20:10:41.810Z,33.89
2023-08-29T20:13:08.651Z,33.70
2023-08-29T20:15:41.108Z,33.62
2023-08-29T20:18:08.434Z,33.55
2023-08-29T20:20:35.481Z,33.49
2023-08-29T20:23:03.227Z,33.47
2023-08-29T20:25:30.313Z,33.42
2023-08-29T20:27:57.159Z,33.44
2023-08-29T20:30:24.674Z,33.43
2023-08-29T20:32:52.289Z,33.41
2023-08-29T20:35:19.128Z,33.37
2023-08-29T20:37:46.166Z,33.36
2023-08-29T20:40:13.027Z,33.36
2023-08-29T20:42:39.966Z,33.34
2023-08-29T20:45:07.482Z,33.26
2023-08-29T20:47:35.907Z,32.97
2023-08-29T20:50:02.978Z,32.98
2023-08-29T20:52:29.960Z,33.10
2023-08-29T20:54:56.714Z,33.15
2023-08-29T20:57:23.512Z,33.01
2023-08-29T20:59:50.325Z,32.96
2023-08-29T21:02:16.962Z,32.89
2023-08-29T21:04:44.272Z,32.89
2023-08-29T21:07:11.317Z,32.95
2023-08-29T21:09:38.243Z,32.96
2023-08-29T21:12:05.605Z,32.87
2023-08-29T21:14:32.375Z,32.91
2023-08-29T21:16:59.303Z,32.86
2023-08-29T21:19:29.125Z,32.75
2023-08-29T21:21:56.479Z,32.81
2023-08-29T21:24:23.130Z,32.78
2023-08-29T21:26:49.888Z,32.87
2023-08-29T21:29:16.625Z,32.70
2023-08-29T21:31:43.358Z,32.57
2023-08-29T21:34:10.190Z,32.55
2023-08-29T21:36:38.770Z,32.69
2023-08-29T21:39:10.302Z,32.86
2023-08-29T21:41:40.617Z,32.84
2023-08-29T21:44:07.797Z,32.88
2023-08-29T21:46:34.542Z,32.82
2023-08-29T21:49:01.177Z,32.90
2023-08-29T21:51:30.961Z,32.90
2023-08-29T21:53:57.639Z,32.80
2023-08-29T21:56:24.764Z,32.78
2023-08-29T21:58:52.408Z,32.78
2023-08-29T22:01:19.410Z,32.88
2023-08-29T22:03:46.160Z,32.85
2023-08-29T22:06:12.930Z,32.82
2023-08-29T22:08:40.100Z,32.80
2023-08-29T22:11:06.900Z,32.81
2023-08-29T22:13:35.227Z,32.77
2023-08-29T22:16:02.245Z,32.70
2023-08-29T22:18:29.830Z,32.67
2023-08-29T22:20:56.649Z,32.75
2023-08-29T22:23:23.270Z,32.74
2023-08-29T22:25:50.065Z,32.63
2023-08-29T22:28:16.766Z,32.60
2023-08-29T22:30:43.510Z,32.66
2023-08-29T22:33:10.177Z,32.78
2023-08-29T22:35:36.919Z,32.94
2023-08-29T22:38:04.573Z,33.05
2023-08-29T22:40:31.653Z,32.92
2023-08-29T22:42:58.316Z,32.81
2023-08-29T22:45:25.288Z,32.74
2023-08-29T22:47:52.139Z,32.72
2023-08-29T22:50:18.944Z,32.74
2023-08-29T22:52:45.536Z,32.77
2023-08-29T22:55:13.365Z,32.93
2023-08-29T22:57:40.632Z,32.90
2023-08-29T23:00:13.090Z,32.76
2023-08-29T23:02:40.301Z,32.67
2023-08-29T23:05:08.121Z,32.57
2023-08-29T23:07:35.102Z,32.52
2023-08-29T23:10:02.269Z,32.54
2023-08-29T23:12:29.133Z,32.55
2023-08-29T23:14:56.898Z,32.62
2023-08-29T23:17:23.659Z,32.51
2023-08-29T23:19:50.788Z,32.50
2023-08-29T23:22:17.372Z,32.48
2023-08-29T23:24:44.196Z,32.46
2023-08-29T23:27:11.647Z,32.41
2023-08-29T23:29:38.504Z,32.37
2023-08-29T23:32:05.961Z,32.37
2023-08-29T23:34:32.731Z,32.28
2023-08-29T23:36:59.536Z,32.31
2023-08-29T23:39:26.186Z,32.33
2023-08-29T23:41:53.526Z,32.17
2023-08-29T23:44:20.092Z,32.30
2023-08-29T23:46:46.745Z,32.25
2023-08-29T23:49:13.517Z,32.20
2023-08-29T23:51:40.112Z,32.36
2023-08-29T23:54:06.785Z,32.54
2023-08-29T23:56:33.397Z,32.52
2023-08-29T23:59:00.179Z,32.56
